Terminal Aerodrome Forecast
Issued by NWS

Home | Current Version | Previous Version | Text Only | Print | Product List | Glossary On
Versions: 1 2 3 4 5 6 7 8 9 10 11 12 13 14 15 16 17 18 19 20 21 22 23 24 25 26 27 28 29 30 31 32 33
541
FTUS44 KOUN 271242 AAA
TAFLAW
TAF AMD
KLAW 271242Z 2713/2812 13020G28KT P6SM OVC150
     FM271600 17015G22KT P6SM SCT025
     FM272200 17015G22KT P6SM VCTS SCT040CB BKN250
     FM280100 16010KT P6SM FEW040 BKN250=

USA.gov is the U.S. government's official web portal to all federal, state and local government web resources and services.